Terminal Aerodrome Forecast
Issued by NWS Mobile, AL

Home | Current Version | Previous Version | Text Only | Print | Product List | Glossary On
Versions: 1 2 3 4 5 6 7 8 9 10 11 12 13 14 15 16 17 18 19 20 21 22 23 24
700
FTUS44 KMOB 101120
TAFPNS
TAF
KPNS 101120Z 1012/1112 36008KT P6SM SKC
     FM101500 31013G20KT P6SM SKC
     FM110000 27006KT P6SM SKC=

USA.gov is the U.S. government's official web portal to all federal, state and local government web resources and services.